createdAt,value
2023-06-19T00:01:11.228Z,6.70
2023-06-19T00:03:37.996Z,6.45
2023-06-19T00:06:06.165Z,6.85
2023-06-19T00:08:32.838Z,7.07
2023-06-19T00:10:59.537Z,6.10
2023-06-19T00:13:26.302Z,6.57
2023-06-19T00:15:53.154Z,6.82
2023-06-19T00:18:21.066Z,7.40
2023-06-19T00:20:48.063Z,6.90
2023-06-19T00:23:17.880Z,7.13
2023-06-19T00:25:45.423Z,7.45
2023-06-19T00:28:14.818Z,7.40
2023-06-19T00:30:42.506Z,7.70
2023-06-19T00:33:09.835Z,6.28
2023-06-19T00:35:36.613Z,7.67
2023-06-19T00:38:03.615Z,8.15
2023-06-19T00:40:34.879Z,8.02
2023-06-19T00:43:02.363Z,7.38
2023-06-19T00:45:29.285Z,6.80
2023-06-19T00:47:57.961Z,6.68
2023-06-19T00:50:25.419Z,7.75
2023-06-19T00:52:52.806Z,9.35
2023-06-19T00:55:19.715Z,6.10
2023-06-19T00:57:47.244Z,7.18
2023-06-19T01:00:14.620Z,6.60
2023-06-19T01:02:41.930Z,4.80
2023-06-19T01:05:08.911Z,7.47
2023-06-19T01:07:48.856Z,6.00
2023-06-19T01:10:20.558Z,5.40
2023-06-19T01:12:59.960Z,2.88
2023-06-19T01:15:27.157Z,4.80
2023-06-19T01:17:56.085Z,8.02
2023-06-19T01:20:23.227Z,2.63
2023-06-19T01:22:50.114Z,3.55
2023-06-19T01:25:16.875Z,3.38
2023-06-19T01:27:43.810Z,3.80
2023-06-19T01:30:12.561Z,3.78
2023-06-19T01:33:00.151Z,2.70
2023-06-19T01:35:30.594Z,2.35
2023-06-19T01:37:58.257Z,1.95
2023-06-19T01:40:27.190Z,3.83
2023-06-19T01:42:55.547Z,2.30
2023-06-19T01:47:49.362Z,2.00
2023-06-19T01:50:16.471Z,2.20
2023-06-19T01:52:43.379Z,2.42
2023-06-19T01:55:10.529Z,4.78
2023-06-19T01:57:39.946Z,2.22
2023-06-19T02:00:11.259Z,3.20
2023-06-19T02:02:38.876Z,3.33
2023-06-19T02:05:06.301Z,1.60
2023-06-19T02:07:33.040Z,2.63
2023-06-19T02:09:59.731Z,4.32
2023-06-19T02:12:26.450Z,2.53
2023-06-19T02:14:53.141Z,7.43
2023-06-19T02:17:19.892Z,3.55
2023-06-19T02:19:46.565Z,3.28
2023-06-19T02:22:13.410Z,2.55
2023-06-19T02:24:40.533Z,5.63
2023-06-19T02:27:07.658Z,2.08
2023-06-19T02:29:35.031Z,2.22
2023-06-19T02:32:02.670Z,2.77
2023-06-19T02:34:29.497Z,5.20
2023-06-19T02:36:56.226Z,2.90
2023-06-19T02:39:24.174Z,2.95
2023-06-19T02:41:51.158Z,2.60
2023-06-19T02:44:17.924Z,2.70
2023-06-19T02:46:44.662Z,3.15
2023-06-19T02:49:11.330Z,3.97
2023-06-19T02:51:39.032Z,2.58
2023-06-19T02:54:07.636Z,6.65
2023-06-19T02:56:34.482Z,5.43
2023-06-19T02:59:01.213Z,3.33
2023-06-19T03:01:28.443Z,2.72
2023-06-19T03:03:55.179Z,3.20
2023-06-19T03:06:21.955Z,3.45
2023-06-19T03:08:48.724Z,3.30
2023-06-19T03:11:15.578Z,3.58
2023-06-19T03:13:51.362Z,4.18
2023-06-19T03:16:18.356Z,3.50
2023-06-19T03:18:46.113Z,3.35
2023-06-19T03:21:13.898Z,6.72
2023-06-19T03:23:42.328Z,4.15
2023-06-19T03:26:10.072Z,4.72
2023-06-19T03:28:37.027Z,3.63
2023-06-19T03:31:04.062Z,3.95
2023-06-19T03:33:30.921Z,4.32
2023-06-19T03:35:58.040Z,4.78
2023-06-19T03:38:24.794Z,4.47
2023-06-19T03:40:51.463Z,3.60
2023-06-19T03:43:18.240Z,4.10
2023-06-19T03:45:45.108Z,5.78
2023-06-19T03:48:11.878Z,4.93
2023-06-19T03:50:38.557Z,4.88
2023-06-19T03:53:05.728Z,5.30
2023-06-19T03:55:32.629Z,5.35
2023-06-19T03:57:59.437Z,6.07
2023-06-19T04:00:26.422Z,6.15
2023-06-19T04:02:53.432Z,7.18
2023-06-19T04:05:21.012Z,7.38
2023-06-19T04:07:48.388Z,8.47
2023-06-19T04:10:16.057Z,7.72
2023-06-19T04:12:43.398Z,8.02
2023-06-19T04:15:10.606Z,9.05
2023-06-19T04:17:37.653Z,10.02
2023-06-19T04:20:12.181Z,10.10
2023-06-19T04:22:40.340Z,9.35
2023-06-19T04:25:08.588Z,9.32
2023-06-19T04:30:05.097Z,8.75
2023-06-19T04:32:31.945Z,9.80
2023-06-19T04:34:58.956Z,9.00
2023-06-19T04:37:25.719Z,9.98
2023-06-19T04:39:52.491Z,8.48
2023-06-19T04:42:20.633Z,10.73
2023-06-19T04:44:48.066Z,12.43
2023-06-19T04:47:19.116Z,13.87
2023-06-19T04:49:45.813Z,11.73
2023-06-19T04:52:12.591Z,10.10
2023-06-19T04:54:39.459Z,7.97
2023-06-19T04:57:07.476Z,7.43
2023-06-19T04:59:34.666Z,8.10
2023-06-19T05:02:01.790Z,6.00
2023-06-19T05:04:28.685Z,4.88
2023-06-19T05:06:55.507Z,4.05
2023-06-19T05:09:22.248Z,3.65
2023-06-19T05:11:49.001Z,4.50
2023-06-19T05:14:15.690Z,2.13
2023-06-19T05:16:43.061Z,1.55
2023-06-19T05:19:10.122Z,2.15
2023-06-19T05:21:37.363Z,2.17
2023-06-19T05:24:04.599Z,1.42
2023-06-19T05:26:31.405Z,2.10
2023-06-19T05:28:58.181Z,1.77
2023-06-19T05:31:25.001Z,2.20
2023-06-19T05:33:51.736Z,1.23
2023-06-19T05:36:18.447Z,1.23
2023-06-19T05:38:45.135Z,4.13
2023-06-19T05:41:12.855Z,1.40
2023-06-19T05:43:39.778Z,1.08
2023-06-19T05:46:06.567Z,3.80
2023-06-19T05:48:33.463Z,2.53
2023-06-19T05:51:00.220Z,3.58
2023-06-19T05:53:27.050Z,2.83
2023-06-19T05:55:55.285Z,2.90
2023-06-19T05:58:22.426Z,3.03
2023-06-19T06:00:49.434Z,4.35
2023-06-19T06:03:16.219Z,4.65
2023-06-19T06:05:43.158Z,5.03
2023-06-19T06:08:10.048Z,4.00
2023-06-19T06:10:36.840Z,5.90
2023-06-19T06:13:03.584Z,3.97
2023-06-19T06:15:30.486Z,3.90
2023-06-19T06:17:57.202Z,4.25
2023-06-19T06:20:24.192Z,5.13
2023-06-19T06:22:51.193Z,5.00
2023-06-19T06:25:18.011Z,5.28
2023-06-19T06:27:45.327Z,4.90
2023-06-19T06:30:13.102Z,4.55
2023-06-19T06:32:40.120Z,5.38
2023-06-19T06:35:07.542Z,5.78
2023-06-19T06:37:34.228Z,6.47
2023-06-19T06:40:01.015Z,6.45
2023-06-19T06:42:27.791Z,7.95
2023-06-19T06:44:54.542Z,7.47
2023-06-19T06:47:21.387Z,7.93
2023-06-19T06:49:48.186Z,7.85
2023-06-19T06:52:14.938Z,8.25
2023-06-19T06:54:41.640Z,7.50
2023-06-19T06:57:08.343Z,7.13
2023-06-19T06:59:35.153Z,8.75
2023-06-19T07:02:01.952Z,9.25
2023-06-19T07:04:28.776Z,9.07
2023-06-19T07:06:55.708Z,9.43
2023-06-19T07:09:22.597Z,9.27
2023-06-19T07:11:51.606Z,8.35
2023-06-19T07:14:20.209Z,9.52
2023-06-19T07:16:47.114Z,9.27
2023-06-19T07:19:14.827Z,9.68
2023-06-19T07:21:42.177Z,10.57
2023-06-19T07:24:09.462Z,9.88
2023-06-19T07:26:36.412Z,10.13
2023-06-19T07:29:03.549Z,10.32
2023-06-19T07:31:30.402Z,10.75
2023-06-19T07:33:57.250Z,10.35
2023-06-19T07:36:23.968Z,12.55
2023-06-19T07:38:50.751Z,11.27
2023-06-19T07:41:17.482Z,10.45
2023-06-19T07:43:44.399Z,11.23
2023-06-19T07:46:12.314Z,10.27
2023-06-19T07:48:39.047Z,10.45
2023-06-19T07:51:05.814Z,11.90
2023-06-19T07:53:32.543Z,11.23
2023-06-19T07:55:59.320Z,10.20
2023-06-19T07:58:26.122Z,9.43
2023-06-19T08:00:52.893Z,12.98
2023-06-19T08:03:19.905Z,12.82
2023-06-19T08:05:46.783Z,12.40
2023-06-19T08:08:14.441Z,14.05
2023-06-19T08:10:42.076Z,12.35
2023-06-19T08:13:09.025Z,11.95
2023-06-19T08:15:36.238Z,13.07
2023-06-19T08:18:03.634Z,14.50
2023-06-19T08:20:30.409Z,14.87
2023-06-19T08:22:57.799Z,13.68
2023-06-19T08:25:24.656Z,13.18
2023-06-19T08:27:51.525Z,15.18
2023-06-19T08:30:18.290Z,15.18
2023-06-19T08:32:47.866Z,14.43
2023-06-19T08:35:15.162Z,14.90
2023-06-19T08:37:41.937Z,16.05
2023-06-19T08:40:10.650Z,15.82
2023-06-19T08:42:38.057Z,16.48
2023-06-19T08:45:05.772Z,14.95
2023-06-19T08:47:35.912Z,15.63
2023-06-19T08:50:03.196Z,15.95
2023-06-19T08:52:30.145Z,15.25
2023-06-19T08:54:56.872Z,14.15
2023-06-19T08:57:38.158Z,14.73
2023-06-19T09:00:07.592Z,14.18
2023-06-19T09:02:50.334Z,16.70
2023-06-19T09:05:20.373Z,14.93
2023-06-19T09:07:57.380Z,16.48
2023-06-19T09:10:25.358Z,14.15
2023-06-19T09:15:35.452Z,15.65
2023-06-19T09:18:04.036Z,18.35
2023-06-19T09:20:30.980Z,17.55
2023-06-19T09:22:59.007Z,16.52
2023-06-19T09:25:27.866Z,16.45
2023-06-19T09:27:55.745Z,17.25
2023-06-19T09:30:23.181Z,17.77
2023-06-19T09:32:50.493Z,15.75
2023-06-19T09:35:17.783Z,16.77
2023-06-19T09:37:46.674Z,18.20
2023-06-19T09:40:14.259Z,18.75
2023-06-19T09:42:43.689Z,18.58
2023-06-19T09:45:12.465Z,18.98
2023-06-19T09:47:50.411Z,19.02
2023-06-19T09:52:46.254Z,20.55
2023-06-19T09:55:14.292Z,20.20
2023-06-19T09:57:42.886Z,17.15
2023-06-19T10:00:16.514Z,19.88
2023-06-19T10:02:45.319Z,18.40
2023-06-19T10:05:15.817Z,16.08
2023-06-19T10:07:45.092Z,16.92
2023-06-19T10:10:26.314Z,15.95
2023-06-19T10:12:56.487Z,17.02
2023-06-19T10:15:28.570Z,17.25
2023-06-19T10:18:00.550Z,16.40
2023-06-19T10:20:46.338Z,15.20
2023-06-19T10:23:23.197Z,15.63
2023-06-19T10:25:53.906Z,15.77
2023-06-19T10:28:25.534Z,15.07
2023-06-19T10:30:59.880Z,16.45
2023-06-19T10:33:28.912Z,16.90
2023-06-19T10:35:55.952Z,19.70
2023-06-19T10:38:22.850Z,19.65
2023-06-19T10:40:49.641Z,20.92
2023-06-19T10:43:29.114Z,18.55
2023-06-19T10:45:55.970Z,17.75
2023-06-19T10:48:25.053Z,18.92
2023-06-19T10:50:52.311Z,17.50
2023-06-19T10:53:31.043Z,16.50
2023-06-19T10:55:59.988Z,16.10
2023-06-19T10:58:27.692Z,16.33
2023-06-19T11:00:54.716Z,13.90
2023-06-19T11:03:22.250Z,14.35
2023-06-19T11:05:49.744Z,13.98
2023-06-19T11:08:23.314Z,17.13
2023-06-19T11:10:51.077Z,17.52
2023-06-19T11:13:21.372Z,14.02
2023-06-19T11:15:51.633Z,14.65
2023-06-19T11:18:19.888Z,14.65
2023-06-19T11:20:51.747Z,15.60
2023-06-19T11:23:30.444Z,14.70
2023-06-19T11:26:04.892Z,14.60
2023-06-19T11:28:31.872Z,14.90
2023-06-19T11:31:04.136Z,12.23
2023-06-19T11:33:31.426Z,11.23
2023-06-19T11:36:02.184Z,12.65
2023-06-19T11:38:29.041Z,13.70
2023-06-19T11:40:57.310Z,12.77
2023-06-19T11:43:31.757Z,12.10
2023-06-19T11:46:08.831Z,13.88
2023-06-19T11:48:39.289Z,11.63
2023-06-19T11:51:06.166Z,12.40
2023-06-19T11:53:32.971Z,11.38
2023-06-19T11:55:59.702Z,10.13
2023-06-19T11:58:26.880Z,11.88
2023-06-19T12:00:57.367Z,11.32
2023-06-19T12:03:24.672Z,12.35
2023-06-19T12:05:52.007Z,11.70
2023-06-19T12:08:21.231Z,13.93
2023-06-19T12:10:53.033Z,12.75
2023-06-19T12:13:20.195Z,14.38
2023-06-19T12:15:47.297Z,12.73
2023-06-19T12:18:15.002Z,12.45
2023-06-19T12:20:42.130Z,11.82
2023-06-19T12:23:09.307Z,12.50
2023-06-19T12:25:36.486Z,10.27
2023-06-19T12:28:09.314Z,10.30
2023-06-19T12:30:36.799Z,11.68
2023-06-19T12:33:04.887Z,12.10
2023-06-19T12:37:59.183Z,10.23
2023-06-19T12:40:26.609Z,10.82
2023-06-19T12:42:54.194Z,10.15
2023-06-19T12:45:21.293Z,9.37
2023-06-19T12:47:48.414Z,9.93
2023-06-19T12:50:15.556Z,10.10
2023-06-19T12:52:42.711Z,11.57
2023-06-19T12:55:10.033Z,11.93
2023-06-19T12:57:37.456Z,10.80
2023-06-19T13:00:09.060Z,10.60
2023-06-19T13:02:36.401Z,10.40
2023-06-19T13:05:03.597Z,9.57
2023-06-19T13:07:30.773Z,11.18
2023-06-19T13:09:57.949Z,10.05
2023-06-19T13:12:25.059Z,10.02
2023-06-19T13:14:53.285Z,10.13
2023-06-19T13:17:20.786Z,9.90
2023-06-19T13:19:47.912Z,9.13
2023-06-19T13:22:15.088Z,9.20
2023-06-19T13:24:42.231Z,11.37
2023-06-19T13:27:09.368Z,11.90
2023-06-19T13:29:36.569Z,11.02
2023-06-19T13:32:03.818Z,12.38
2023-06-19T13:34:31.029Z,11.27
2023-06-19T13:36:58.133Z,11.07
2023-06-19T13:39:25.226Z,11.00
2023-06-19T13:41:54.112Z,11.18
2023-06-19T13:44:22.304Z,10.43
2023-06-19T13:46:50.359Z,11.57
2023-06-19T13:51:45.273Z,11.30
2023-06-19T13:54:14.205Z,12.45
2023-06-19T13:56:41.606Z,10.75
2023-06-19T13:59:09.550Z,11.63
2023-06-19T14:01:36.804Z,12.85
2023-06-19T14:04:03.962Z,11.20
2023-06-19T14:06:31.438Z,15.48
2023-06-19T14:08:58.597Z,11.95
2023-06-19T14:11:25.787Z,10.77
2023-06-19T14:13:52.937Z,11.80
2023-06-19T14:16:20.068Z,11.60
2023-06-19T14:18:47.222Z,10.00
2023-06-19T14:21:14.386Z,9.85
2023-06-19T14:23:44.320Z,10.13
2023-06-19T14:26:14.539Z,11.20
2023-06-19T14:28:41.683Z,10.38
2023-06-19T14:31:09.077Z,10.50
2023-06-19T14:33:38.056Z,9.97
2023-06-19T14:36:05.687Z,10.05
2023-06-19T14:38:34.722Z,9.30
2023-06-19T14:41:02.790Z,9.95
2023-06-19T14:43:33.495Z,9.30
2023-06-19T14:46:08.614Z,9.85
2023-06-19T14:48:35.334Z,9.57
2023-06-19T14:51:02.716Z,9.35
2023-06-19T14:53:29.416Z,10.68
2023-06-19T14:55:56.370Z,10.90
2023-06-19T14:58:23.239Z,10.35
2023-06-19T15:00:49.938Z,11.05
2023-06-19T15:03:16.894Z,9.40
2023-06-19T15:05:43.722Z,10.77
2023-06-19T15:08:11.357Z,10.32
2023-06-19T15:10:39.167Z,9.07
2023-06-19T15:13:05.937Z,10.77
2023-06-19T15:15:32.694Z,8.82
2023-06-19T15:18:00.572Z,9.30
2023-06-19T15:20:27.300Z,9.25
2023-06-19T15:22:57.250Z,11.02
2023-06-19T15:25:24.345Z,9.27
2023-06-19T15:27:51.497Z,10.25
2023-06-19T15:30:18.732Z,9.75
2023-06-19T15:32:48.673Z,10.23
2023-06-19T15:35:15.928Z,9.98
2023-06-19T15:37:43.301Z,9.83
2023-06-19T15:40:10.526Z,10.32
2023-06-19T15:42:38.009Z,11.17
2023-06-19T15:45:05.653Z,10.45
2023-06-19T15:47:35.947Z,10.95
2023-06-19T15:50:03.287Z,10.85
2023-06-19T15:52:32.123Z,13.03
2023-06-19T15:54:59.270Z,10.65
2023-06-19T15:57:26.468Z,11.20
2023-06-19T15:59:54.066Z,10.00
2023-06-19T16:02:21.351Z,10.45
2023-06-19T16:04:48.657Z,10.65
2023-06-19T16:07:15.905Z,9.67
2023-06-19T16:09:54.481Z,8.00
2023-06-19T16:12:23.033Z,10.10
2023-06-19T16:14:50.178Z,9.30
2023-06-19T16:17:17.280Z,8.80
2023-06-19T16:19:44.548Z,9.27
2023-06-19T16:22:12.362Z,9.40
2023-06-19T16:24:40.870Z,7.78
2023-06-19T16:27:08.315Z,7.85
2023-06-19T16:29:35.471Z,9.43
2023-06-19T16:32:09.520Z,10.60
2023-06-19T16:34:37.982Z,9.10
2023-06-19T16:37:05.332Z,10.23
2023-06-19T16:39:32.647Z,9.13
2023-06-19T16:41:59.868Z,9.87
2023-06-19T16:44:27.007Z,10.63
2023-06-19T16:46:54.157Z,12.15
2023-06-19T16:49:23.409Z,9.67
2023-06-19T16:51:50.697Z,10.25
2023-06-19T16:54:17.985Z,9.02
2023-06-19T16:56:45.231Z,10.00
2023-06-19T16:59:12.432Z,10.63
2023-06-19T17:01:40.042Z,10.67
2023-06-19T17:04:07.264Z,9.13
2023-06-19T17:06:34.422Z,9.75
2023-06-19T17:09:01.580Z,9.38
2023-06-19T17:11:28.723Z,10.07
2023-06-19T17:13:58.271Z,11.50
2023-06-19T17:16:25.528Z,8.80
2023-06-19T17:18:52.668Z,10.13
2023-06-19T17:21:19.847Z,7.88
2023-06-19T17:23:47.843Z,9.63
2023-06-19T17:26:15.008Z,7.30
2023-06-19T17:28:42.210Z,11.98
2023-06-19T17:31:09.392Z,8.05
2023-06-19T17:33:36.550Z,9.27
2023-06-19T17:36:04.060Z,8.80
2023-06-19T17:38:31.195Z,7.72
2023-06-19T17:40:58.324Z,8.02
2023-06-19T17:43:25.500Z,7.90
2023-06-19T17:45:52.686Z,8.27
2023-06-19T17:48:19.819Z,9.17
2023-06-19T17:50:46.950Z,9.27
2023-06-19T17:53:14.147Z,8.50
2023-06-19T17:55:43.513Z,13.33
2023-06-19T17:58:10.828Z,9.95
2023-06-19T18:00:38.019Z,8.25
2023-06-19T18:03:05.598Z,7.00
2023-06-19T18:05:32.942Z,12.93
2023-06-19T18:08:00.117Z,8.30
2023-06-19T18:10:27.445Z,6.90
2023-06-19T18:12:54.876Z,7.68
2023-06-19T18:15:22.078Z,7.78
2023-06-19T18:17:49.309Z,7.10
2023-06-19T18:20:16.645Z,7.10
2023-06-19T18:22:44.455Z,7.33
2023-06-19T18:25:11.714Z,6.90
2023-06-19T18:27:40.131Z,6.90
2023-06-19T18:30:09.323Z,8.30
2023-06-19T18:32:36.535Z,6.60
2023-06-19T18:35:03.801Z,7.23
2023-06-19T18:37:31.012Z,8.63
2023-06-19T18:39:58.312Z,7.00
2023-06-19T18:42:27.878Z,8.17
2023-06-19T18:44:55.148Z,7.75
2023-06-19T18:47:22.345Z,7.43
2023-06-19T18:49:50.804Z,7.43
2023-06-19T18:52:18.014Z,6.70
2023-06-19T18:54:45.361Z,7.33
2023-06-19T18:57:12.610Z,7.68
2023-06-19T18:59:39.752Z,6.67
2023-06-19T19:02:08.542Z,6.95
2023-06-19T19:04:38.498Z,6.75
2023-06-19T19:07:06.033Z,7.70
2023-06-19T19:09:33.309Z,6.38
2023-06-19T19:12:00.523Z,8.93
2023-06-19T19:14:27.682Z,6.20
2023-06-19T19:16:54.873Z,6.30
2023-06-19T19:19:22.196Z,6.03
2023-06-19T19:21:51.625Z,6.28
2023-06-19T19:24:23.029Z,5.93
2023-06-19T19:26:51.213Z,5.60
2023-06-19T19:29:18.407Z,5.60
2023-06-19T19:31:45.554Z,5.95
2023-06-19T19:34:19.825Z,8.40
2023-06-19T19:36:47.885Z,8.80
2023-06-19T19:39:15.219Z,7.40
2023-06-19T19:41:45.197Z,6.37
2023-06-19T19:44:12.515Z,6.03
2023-06-19T19:46:41.260Z,7.97
2023-06-19T19:49:08.638Z,5.68
2023-06-19T19:51:35.821Z,5.63
2023-06-19T19:54:03.037Z,7.13
2023-06-19T19:56:30.237Z,5.63
2023-06-19T19:58:57.376Z,6.43
2023-06-19T20:01:24.600Z,6.07
2023-06-19T20:03:51.875Z,9.53
2023-06-19T20:06:19.124Z,6.03
2023-06-19T20:08:47.832Z,6.10
2023-06-19T20:11:15.328Z,6.55
2023-06-19T20:13:42.544Z,6.82
2023-06-19T20:16:10.480Z,6.43
2023-06-19T20:18:38.016Z,6.28
2023-06-19T20:21:05.182Z,7.97
2023-06-19T20:23:32.436Z,7.45
2023-06-19T20:26:00.747Z,7.60
2023-06-19T20:28:28.003Z,6.93
2023-06-19T20:30:56.245Z,6.45
2023-06-19T20:33:23.541Z,8.05
2023-06-19T20:35:51.183Z,8.30
2023-06-19T20:38:21.217Z,6.70
2023-06-19T20:40:48.865Z,9.15
2023-06-19T20:43:16.377Z,7.43
2023-06-19T20:45:43.687Z,7.30
2023-06-19T20:48:11.152Z,8.30
2023-06-19T20:50:38.295Z,6.90
2023-06-19T20:53:05.481Z,6.60
2023-06-19T20:55:32.682Z,9.27
2023-06-19T20:58:05.233Z,7.33
2023-06-19T21:00:32.837Z,7.65
2023-06-19T21:03:00.269Z,7.30
2023-06-19T21:05:27.992Z,7.90
2023-06-19T21:07:55.122Z,7.57
2023-06-19T21:10:23.657Z,6.97
2023-06-19T21:12:51.140Z,7.03
2023-06-19T21:15:18.239Z,8.90
2023-06-19T21:17:45.422Z,8.52
2023-06-19T21:20:12.677Z,7.80
2023-06-19T21:22:40.181Z,8.37
2023-06-19T21:25:07.690Z,8.02
2023-06-19T21:27:37.607Z,8.13
2023-06-19T21:30:05.404Z,7.85
2023-06-19T21:32:32.553Z,8.63
2023-06-19T21:34:59.784Z,8.98
2023-06-19T21:37:26.984Z,7.60
2023-06-19T21:39:54.127Z,8.10
2023-06-19T21:42:21.254Z,8.73
2023-06-19T21:44:48.384Z,9.50
2023-06-19T21:47:15.551Z,8.00
2023-06-19T21:49:42.662Z,7.43
2023-06-19T21:52:10.803Z,7.72
2023-06-19T21:57:05.095Z,7.73
2023-06-19T21:59:32.231Z,7.85
2023-06-19T22:01:59.368Z,7.45
2023-06-19T22:04:26.506Z,8.05
2023-06-19T22:06:53.691Z,8.40
2023-06-19T22:09:20.941Z,8.10
2023-06-19T22:11:48.057Z,8.03
2023-06-19T22:14:15.261Z,8.90
2023-06-19T22:16:42.518Z,9.17
2023-06-19T22:19:11.341Z,9.47
2023-06-19T22:21:40.199Z,8.38
2023-06-19T22:24:07.377Z,8.18
2023-06-19T22:26:38.037Z,9.77
2023-06-19T22:29:05.731Z,8.40
2023-06-19T22:31:33.200Z,9.27
2023-06-19T22:34:00.327Z,8.18
2023-06-19T22:36:27.470Z,9.00
2023-06-19T22:38:54.792Z,8.17
2023-06-19T22:41:21.934Z,8.55
2023-06-19T22:43:49.111Z,8.55
2023-06-19T22:46:16.301Z,9.77
2023-06-19T22:48:44.069Z,11.05
2023-06-19T22:51:11.385Z,9.48
2023-06-19T22:53:38.789Z,9.27
2023-06-19T22:56:05.501Z,9.27
2023-06-19T22:58:32.324Z,9.02
2023-06-19T23:00:59.077Z,9.07
2023-06-19T23:03:25.962Z,9.63
2023-06-19T23:05:54.536Z,10.07
2023-06-19T23:08:21.270Z,9.82
2023-06-19T23:10:48.007Z,9.90
2023-06-19T23:13:14.735Z,10.48
2023-06-19T23:15:41.454Z,8.65
2023-06-19T23:18:08.294Z,9.25
2023-06-19T23:20:35.014Z,8.70
2023-06-19T23:23:05.903Z,9.15
2023-06-19T23:25:34.553Z,8.75
2023-06-19T23:28:01.511Z,11.05
2023-06-19T23:30:28.297Z,11.20
2023-06-19T23:32:55.053Z,8.80
2023-06-19T23:35:23.936Z,8.65
2023-06-19T23:37:51.055Z,8.30
2023-06-19T23:40:17.741Z,8.40
2023-06-19T23:42:44.407Z,8.20
2023-06-19T23:45:11.374Z,7.35
2023-06-19T23:47:39.574Z,7.13
2023-06-19T23:50:08.268Z,7.65
2023-06-19T23:52:43.473Z,7.32
2023-06-19T23:55:10.752Z,7.85
2023-06-19T23:57:37.492Z,7.55
